weather.gov     
National Weather Service

Terminal Aerodrome Forecast
NWS Homepage
This page is being discontinued on March 12, 2014.
The same data is available at this site. Please update your bookmarks.
Thank you, and we apologize for the inconvenience.
Please send an email to SR-SRH.Webmaster@noaa.gov with any concerns.


Current Version
Previous Version:    01  02  03  04  05  06  07  08  09  10  11  12  13  14  15  16  17  18  19  20  21  22  23  24  25  
[Printable]
091
FTUS45 KPUB 281736
TAFALS
TAF
KALS 281736Z 2818/2918 VRB06KT P6SM VCSH BKN100
     FM282000 19008KT P6SM VCTS SCT050CB BKN100
      TEMPO 2820/2824 3SM -TSRA BKN040CB
     FM290000 16010KT P6SM VCTS SCT040CB BKN080
      TEMPO 2900/2904 3SM TSRA BKN030CB
     FM290600 VRB06KT P6SM SCT030 BKN080=




091
FTUS45 KPUB 281736
TAFALS
TAF
KALS 281736Z 2818/2918 VRB06KT P6SM VCSH BKN100
     FM282000 19008KT P6SM VCTS SCT050CB BKN100
      TEMPO 2820/2824 3SM -TSRA BKN040CB
     FM290000 16010KT P6SM VCTS SCT040CB BKN080
      TEMPO 2900/2904 3SM TSRA BKN030CB
     FM290600 VRB06KT P6SM SCT030 BKN080=


U.S. Dept. of Commerce
NOAA National Weather Service
1325 East West Highway
Silver Spring, MD 20910
E-mail: w-nws.webmaster@noaa.gov
Page last modified: May 16, 2007
NATIONAL WEATHER SERVICE: for Safety, for Work, for Fun - FOR LIFE